X  Fechar Dados meteorológicos de METAR da aviação        LELL Aeropuerto de Barcelona Josep Tarradellas
Temperatura
12°C Temperatura
1°C Ponto de orvalho
47% Umidade



Vento
4 KM/H
2 MPH
1 M/S
2 NÓS



-1°
VRB
Condições atuais

Mostly Clear Quase claro
Pressão 1016 (hPa) - 30 (inHg)
Visibilidade 6 (milha) - 10 (km)
Aeroporto
Código do aeroporto LELL

Localização: Aeropuerto de Barcelona Josep Tarradellas
Distância: 20 (km)

Metar:
METAR LELL 281830Z AUTO VRB02KT CAVOK 12/01 Q1016

Hora: 28-02-2024 19:30 CET